Метеостанция


АнтоновUKKM 240630Z AUTO 32002MPS 270V020 9999 NCD 19/14 Q1009
БориспольUKBB 240630Z 35003MPS 320V040 9999 SCT014 19/14 Q1009 R88/CLRD// NOSIG
ДнепропетровскUKDD 240630Z 32007MPS 9999 FEW016CB BKN026 20/16 Q1005 R26/090070 TEMPO 34007G12MPS
ДонецкNo METAR available for UKCC.
ЖуляныUKKK 240630Z 31003MPS CAVOK 19/14 Q1009 R26/CLRD70 NOSIG
Запорожье(Мокрая)UKDE 240630Z 24005MPS 210V270 9999 BKN033 22/18 Q1005 R20/CLRD70 NOSIG
Ивано-ФранковскUKLI 240630Z 26005MPS 240V320 9999 BKN030 BKN200 20/16 Q1013 R28/190068 NOSIG
Кривой РогUKDR 240630Z 33005MPS 310V020 9999 BKN026 OVC200 20/15 Q1007 R36/09//70 NOSIG
ЛуганскNo METAR available for UKCW.
ЛьвовUKLL 240630Z 28005MPS 9999 BKN010 BKN023CB 17/15 Q1013 R31/290060 NOSIG
МариупольNo METAR available for UKCM.
НиколаевUKON 240600Z 33004MPS 290V020 9999 SCT020CB OVC100 20/16 Q1007 NOSIG
ОдессаUKOO 240630Z 31005MPS 9999 SCT016 BKN026 21/17 Q1009 R34/090060 NOSIG
РовноUKLR 240630Z 24003MPS 3000 -RA BR OVC005 16/16 Q1011 R29/190060 TEMPO 1000 BR OVC003
СимферопольNo METAR available for UKFF.
УжгородUKLU 240630Z 26003MPS 220V320 9999 SCT040 BKN100 19/15 Q1015 R10/090070 NOSIG
ХарьковUKHH 240630Z 01004MPS 330V050 9999 SCT013 BKN020 17/13 Q1005 R07/0///66 NOSIG
ЧеркассыNo METAR available for UKKE.
ЧерновцыUKLN 240630Z 30004MPS 260V340 9999 SCT033CB BKN100 19/17 Q1013 R33/290260 NOSIG
Скачать:
Скачать этот файл (Metar_шпаргалка.jpg)Расшифровка METAR[ ]4799 Кб
Вся информация, которая имеется в использовании на сайте и доступная для скачивания, получена исключительно из открытых источников информации сети Интернет, всякое совпадение с данными, имеющими ограничения в доступе, случайное и не является преднамеренным.